createdAt,value
2022-10-22T00:00:25.357Z,5.80
2022-10-22T00:03:14.153Z,4.40
2022-10-22T00:06:04.326Z,5.43
2022-10-22T00:08:53.374Z,4.87
2022-10-22T00:11:42.743Z,4.83
2022-10-22T00:14:31.558Z,4.80
2022-10-22T00:17:20.523Z,4.53
2022-10-22T00:20:09.827Z,5.10
2022-10-22T00:22:59.973Z,5.37
2022-10-22T00:25:48.782Z,6.13
2022-10-22T00:28:37.590Z,4.77
2022-10-22T00:31:26.465Z,5.20
2022-10-22T00:34:15.262Z,4.63
2022-10-22T00:37:04.247Z,5.13
2022-10-22T00:39:54.402Z,4.80
2022-10-22T00:42:43.955Z,4.40
2022-10-22T00:45:32.901Z,5.10
2022-10-22T00:48:23.730Z,5.17
2022-10-22T00:51:12.552Z,4.80
2022-10-22T00:54:03.569Z,5.10
2022-10-22T00:56:53.782Z,4.53
2022-10-22T00:59:42.643Z,4.47
2022-10-22T01:02:31.473Z,5.50
2022-10-22T01:05:20.366Z,4.83
2022-10-22T01:11:05.006Z,4.10
2022-10-22T01:13:59.596Z,4.63
2022-10-22T01:16:51.992Z,4.13
2022-10-22T01:19:48.531Z,4.73
2022-10-22T01:22:39.791Z,5.00
2022-10-22T01:25:33.354Z,4.93
2022-10-22T01:28:27.985Z,4.50
2022-10-22T01:31:18.713Z,4.10
2022-10-22T01:34:08.022Z,4.40
2022-10-22T01:36:57.644Z,4.80
2022-10-22T01:39:47.917Z,4.83
2022-10-22T01:42:36.735Z,4.70
2022-10-22T01:45:25.627Z,4.23
2022-10-22T01:48:22.366Z,4.57
2022-10-22T01:51:25.800Z,4.50
2022-10-22T01:54:19.551Z,4.43
2022-10-22T01:57:11.293Z,5.00
2022-10-22T02:00:02.891Z,5.00
2022-10-22T02:02:58.112Z,4.80
2022-10-22T02:05:50.418Z,4.90
2022-10-22T02:08:39.937Z,4.10
2022-10-22T02:11:29.163Z,4.63
2022-10-22T02:14:18.533Z,3.80
2022-10-22T02:17:08.682Z,4.80
2022-10-22T02:19:59.242Z,4.20
2022-10-22T02:22:49.574Z,4.60
2022-10-22T02:25:39.850Z,4.17
2022-10-22T02:28:31.121Z,4.07
2022-10-22T02:31:22.871Z,3.90
2022-10-22T02:34:14.573Z,4.50
2022-10-22T02:37:04.233Z,4.43
2022-10-22T02:39:54.765Z,4.23
2022-10-22T02:42:43.918Z,4.63
2022-10-22T02:45:33.811Z,4.50
2022-10-22T02:48:22.712Z,4.90
2022-10-22T02:51:11.536Z,3.90
2022-10-22T02:54:00.371Z,4.13
2022-10-22T02:56:50.536Z,3.77
2022-10-22T02:59:39.343Z,4.30
2022-10-22T03:02:28.173Z,4.60
2022-10-22T03:05:17.059Z,3.97
2022-10-22T03:08:06.365Z,4.30
2022-10-22T03:10:55.186Z,4.03
2022-10-22T03:13:45.471Z,4.23
2022-10-22T03:16:34.330Z,4.30
2022-10-22T03:19:23.163Z,4.17
2022-10-22T03:22:14.650Z,5.70
2022-10-22T03:25:07.717Z,4.70
2022-10-22T03:27:58.066Z,5.37
2022-10-22T03:30:48.181Z,7.43
2022-10-22T03:33:37.053Z,5.73
2022-10-22T03:36:25.923Z,6.23
2022-10-22T03:39:16.230Z,6.10
2022-10-22T03:42:05.869Z,4.73
2022-10-22T03:44:54.825Z,3.90
2022-10-22T03:47:45.088Z,4.60
2022-10-22T03:50:33.966Z,4.23
2022-10-22T03:53:22.985Z,4.13
2022-10-22T03:56:12.302Z,3.53
2022-10-22T03:59:01.745Z,4.20
2022-10-22T04:01:50.598Z,4.30
2022-10-22T04:04:40.972Z,4.73
2022-10-22T04:07:29.790Z,5.13
2022-10-22T04:10:18.953Z,4.00
2022-10-22T04:13:07.775Z,3.77
2022-10-22T04:15:56.786Z,4.17
2022-10-22T04:18:46.810Z,3.80
2022-10-22T04:21:37.297Z,3.70
2022-10-22T04:24:26.296Z,4.30
2022-10-22T04:27:15.122Z,4.13
2022-10-22T04:30:03.991Z,4.00
2022-10-22T04:32:52.794Z,3.60
2022-10-22T04:35:41.609Z,3.60
2022-10-22T04:38:31.793Z,3.23
2022-10-22T04:41:21.725Z,3.73
2022-10-22T04:44:13.650Z,3.80
2022-10-22T04:47:05.897Z,4.10
2022-10-22T04:49:54.686Z,4.20
2022-10-22T04:52:43.502Z,3.80
2022-10-22T04:55:33.679Z,4.20
2022-10-22T04:58:22.602Z,4.60
2022-10-22T05:01:12.359Z,5.00
2022-10-22T05:04:02.646Z,5.20
2022-10-22T05:06:52.068Z,4.23
2022-10-22T05:09:40.895Z,4.80
2022-10-22T05:12:31.097Z,4.20
2022-10-22T05:15:19.946Z,4.33
2022-10-22T05:18:08.786Z,4.50
2022-10-22T05:20:57.597Z,4.20
2022-10-22T05:23:46.831Z,4.47
2022-10-22T05:26:35.972Z,4.70
2022-10-22T05:29:26.294Z,5.80
2022-10-22T05:32:15.135Z,6.17
2022-10-22T05:35:03.921Z,6.93
2022-10-22T05:37:52.770Z,7.23
2022-10-22T05:40:41.593Z,6.20
2022-10-22T05:43:30.390Z,6.00
2022-10-22T05:46:23.023Z,6.90
2022-10-22T05:49:14.137Z,6.13
2022-10-22T05:52:02.958Z,6.93
2022-10-22T05:54:51.860Z,6.83
2022-10-22T05:57:41.309Z,6.43
2022-10-22T06:00:30.137Z,7.40
2022-10-22T06:03:20.334Z,6.57
2022-10-22T06:06:14.013Z,8.33
2022-10-22T06:09:03.887Z,9.80
2022-10-22T06:11:52.801Z,9.27
2022-10-22T06:14:41.621Z,10.57
2022-10-22T06:17:30.462Z,9.97
2022-10-22T06:20:20.689Z,20.13
2022-10-22T06:23:09.538Z,14.53
2022-10-22T06:25:58.697Z,12.63
2022-10-22T06:28:47.525Z,13.03
2022-10-22T06:31:37.441Z,11.33
2022-10-22T06:34:26.333Z,12.30
2022-10-22T06:37:16.533Z,10.50
2022-10-22T06:40:05.555Z,10.80
2022-10-22T06:42:54.404Z,12.60
2022-10-22T06:45:43.223Z,13.87
2022-10-22T06:48:32.169Z,11.03
2022-10-22T06:51:21.950Z,8.77
2022-10-22T06:54:12.302Z,11.47
2022-10-22T06:57:01.165Z,9.37
2022-10-22T06:59:49.969Z,7.90
2022-10-22T07:02:39.178Z,7.13
2022-10-22T07:05:28.274Z,6.50
2022-10-22T07:08:17.106Z,4.17
2022-10-22T07:11:12.323Z,3.03
2022-10-22T07:14:01.706Z,3.60
2022-10-22T07:16:50.529Z,3.50
2022-10-22T07:19:39.321Z,3.37
2022-10-22T07:22:28.229Z,3.27
2022-10-22T07:25:17.059Z,3.17
2022-10-22T07:28:07.319Z,3.63
2022-10-22T07:30:56.237Z,5.37
2022-10-22T07:33:45.082Z,4.43
2022-10-22T07:36:33.932Z,3.70
2022-10-22T07:39:22.851Z,4.13
2022-10-22T07:42:11.729Z,4.00
2022-10-22T07:45:01.893Z,4.23
2022-10-22T07:47:50.818Z,3.27
2022-10-22T07:50:39.713Z,3.20
2022-10-22T07:53:28.527Z,2.97
2022-10-22T07:56:17.615Z,2.73
2022-10-22T07:59:06.443Z,2.57
2022-10-22T08:01:56.658Z,1.83
2022-10-22T08:04:45.549Z,2.37
2022-10-22T08:07:34.345Z,1.80
2022-10-22T08:10:23.174Z,1.83
2022-10-22T08:13:12.192Z,2.30
2022-10-22T08:16:01.553Z,2.20
2022-10-22T08:18:52.114Z,2.63
2022-10-22T08:21:41.050Z,2.17
2022-10-22T08:24:29.924Z,2.22
2022-10-22T08:27:18.737Z,1.92
2022-10-22T08:30:08.186Z,1.70
2022-10-22T08:32:57.169Z,1.85
2022-10-22T08:35:50.549Z,2.00
2022-10-22T08:38:39.429Z,1.65
2022-10-22T08:41:28.320Z,1.80
2022-10-22T08:44:34.854Z,1.90
2022-10-22T08:47:32.873Z,2.13
2022-10-22T08:50:28.897Z,1.75
2022-10-22T08:53:19.931Z,2.10
2022-10-22T08:56:08.774Z,2.07
2022-10-22T08:59:01.402Z,2.00
2022-10-22T09:01:52.257Z,2.23
2022-10-22T09:04:48.813Z,1.50
2022-10-22T09:07:37.684Z,2.93
2022-10-22T09:10:29.817Z,1.70
2022-10-22T09:13:19.924Z,1.60
2022-10-22T09:16:15.750Z,1.50
2022-10-22T09:19:08.212Z,1.60
2022-10-22T09:22:00.025Z,2.17
2022-10-22T09:24:49.503Z,1.60
2022-10-22T09:27:40.210Z,1.57
2022-10-22T09:30:30.443Z,1.80
2022-10-22T09:33:23.948Z,1.53
2022-10-22T09:36:15.013Z,1.57
2022-10-22T09:39:04.203Z,1.23
2022-10-22T09:41:53.201Z,1.90
2022-10-22T09:44:46.305Z,1.57
2022-10-22T09:48:01.157Z,1.70
2022-10-22T09:50:48.746Z,1.33
2022-10-22T09:53:38.776Z,1.90
2022-10-22T09:56:28.818Z,1.30
2022-10-22T09:59:18.259Z,1.20
2022-10-22T10:02:20.407Z,1.00
2022-10-22T10:05:26.367Z,1.63
2022-10-22T10:08:16.210Z,1.00
2022-10-22T10:11:07.758Z,1.60
2022-10-22T10:14:02.039Z,1.77
2022-10-22T10:16:55.270Z,1.43
2022-10-22T10:19:51.614Z,1.50
2022-10-22T10:22:45.061Z,1.00
2022-10-22T10:25:40.342Z,1.57
2022-10-22T10:28:50.035Z,1.50
2022-10-22T10:31:43.489Z,1.43
2022-10-22T10:34:38.002Z,1.27
2022-10-22T10:37:29.564Z,1.27
2022-10-22T10:40:25.518Z,1.97
2022-10-22T10:43:16.953Z,0.97
2022-10-22T10:46:09.610Z,1.20
2022-10-22T10:49:01.228Z,1.33
2022-10-22T10:51:55.128Z,1.20
2022-10-22T10:54:48.347Z,1.30
2022-10-22T10:57:41.622Z,1.27
2022-10-22T11:00:34.572Z,1.57
2022-10-22T11:03:36.811Z,2.00
2022-10-22T11:06:26.893Z,1.00
2022-10-22T11:09:23.818Z,1.20
2022-10-22T11:12:16.750Z,0.80
2022-10-22T11:15:10.625Z,1.37
2022-10-22T11:18:04.332Z,0.90
2022-10-22T11:20:57.297Z,0.80
2022-10-22T11:23:48.063Z,0.80
2022-10-22T11:26:39.806Z,0.90
2022-10-22T11:29:32.945Z,1.33
2022-10-22T11:32:23.564Z,1.00
2022-10-22T11:35:15.134Z,0.90
2022-10-22T11:38:05.054Z,1.30
2022-10-22T11:40:56.166Z,0.90
2022-10-22T11:43:55.130Z,1.53
2022-10-22T11:46:55.552Z,1.03
2022-10-22T11:49:45.357Z,1.10
2022-10-22T11:52:42.667Z,1.10
2022-10-22T11:55:49.181Z,0.97
2022-10-22T11:58:43.688Z,1.00
2022-10-22T12:01:42.499Z,1.13
2022-10-22T12:04:43.302Z,1.70
2022-10-22T12:07:35.067Z,1.10
2022-10-22T12:10:26.490Z,2.67
2022-10-22T12:13:19.827Z,2.90
2022-10-22T12:16:14.186Z,1.27
2022-10-22T12:19:06.926Z,0.90
2022-10-22T12:21:59.550Z,1.07
2022-10-22T12:24:50.326Z,1.10
2022-10-22T12:27:40.475Z,0.93
2022-10-22T12:30:31.658Z,0.97
2022-10-22T12:33:21.770Z,1.40
2022-10-22T12:36:16.338Z,1.50
2022-10-22T12:39:12.494Z,1.07
2022-10-22T12:42:01.315Z,0.90
2022-10-22T12:44:50.148Z,1.50
2022-10-22T12:47:39.281Z,1.10
2022-10-22T12:50:33.893Z,1.10
2022-10-22T12:53:24.544Z,0.80
2022-10-22T12:56:16.326Z,0.80
2022-10-22T12:59:06.853Z,0.80
2022-10-22T13:01:56.782Z,1.40
2022-10-22T13:05:05.600Z,1.57
2022-10-22T13:07:55.438Z,0.77
2022-10-22T13:10:51.062Z,0.70
2022-10-22T13:13:45.818Z,1.00
2022-10-22T13:19:37.736Z,0.90
2022-10-22T13:22:28.274Z,1.50
2022-10-22T13:25:22.280Z,0.80
2022-10-22T13:28:19.147Z,0.80
2022-10-22T13:31:13.206Z,1.00
2022-10-22T13:34:09.721Z,1.77
2022-10-22T13:37:00.689Z,1.10
2022-10-22T13:39:49.634Z,0.70
2022-10-22T13:42:39.508Z,0.90
2022-10-22T13:45:29.122Z,1.43
2022-10-22T13:48:21.975Z,0.80
2022-10-22T13:51:15.274Z,0.83
2022-10-22T13:54:04.573Z,1.00
2022-10-22T13:56:53.755Z,0.80
2022-10-22T13:59:42.586Z,1.27
2022-10-22T14:02:31.427Z,1.17
2022-10-22T14:05:21.637Z,0.90
2022-10-22T14:08:13.403Z,1.30
2022-10-22T14:11:02.316Z,1.13
2022-10-22T14:13:51.166Z,0.70
2022-10-22T14:16:39.992Z,1.53
2022-10-22T14:19:28.822Z,1.40
2022-10-22T14:22:20.045Z,1.07
2022-10-22T14:25:10.767Z,1.77
2022-10-22T14:28:00.043Z,0.80
2022-10-22T14:30:49.175Z,1.47
2022-10-22T14:33:38.250Z,0.87
2022-10-22T14:36:27.947Z,0.97
2022-10-22T14:39:18.705Z,1.10
2022-10-22T14:42:07.549Z,1.10
2022-10-22T14:44:56.456Z,0.90
2022-10-22T14:47:45.664Z,1.03
2022-10-22T14:50:34.473Z,0.87
2022-10-22T14:53:23.310Z,1.00
2022-10-22T14:56:14.191Z,0.67
2022-10-22T14:59:03.044Z,1.50
2022-10-22T15:01:52.029Z,1.10
2022-10-22T15:04:40.996Z,0.83
2022-10-22T15:07:30.205Z,0.77
2022-10-22T15:10:19.286Z,1.10
2022-10-22T15:13:09.577Z,3.13
2022-10-22T15:15:58.803Z,0.97
2022-10-22T15:18:47.690Z,0.90
2022-10-22T15:21:36.888Z,1.13
2022-10-22T15:24:25.756Z,0.90
2022-10-22T15:27:14.604Z,1.00
2022-10-22T15:30:05.131Z,0.93
2022-10-22T15:32:53.972Z,0.80
2022-10-22T15:35:42.859Z,1.00
2022-10-22T15:38:31.890Z,0.90
2022-10-22T15:41:20.702Z,1.13
2022-10-22T15:44:09.665Z,0.93
2022-10-22T15:47:00.494Z,1.00
2022-10-22T15:49:49.340Z,1.10
2022-10-22T15:52:38.175Z,1.20
2022-10-22T15:55:27.049Z,1.17
2022-10-22T15:58:15.919Z,0.70
2022-10-22T16:01:08.371Z,0.90
2022-10-22T16:04:02.503Z,0.83
2022-10-22T16:06:52.996Z,0.90
2022-10-22T16:09:41.925Z,1.03
2022-10-22T16:12:30.754Z,1.10
2022-10-22T16:15:19.585Z,1.33
2022-10-22T16:18:08.392Z,1.17
2022-10-22T16:20:58.892Z,2.07
2022-10-22T16:23:47.741Z,0.80
2022-10-22T16:26:37.087Z,0.83
2022-10-22T16:29:26.001Z,1.13
2022-10-22T16:32:16.362Z,1.37
2022-10-22T16:35:05.378Z,1.30
2022-10-22T16:37:55.600Z,1.10
2022-10-22T16:40:44.421Z,1.40
2022-10-22T16:43:33.580Z,2.07
2022-10-22T16:46:23.533Z,1.60
2022-10-22T16:49:12.625Z,3.07
2022-10-22T16:52:01.417Z,2.47
2022-10-22T16:54:51.555Z,2.47
2022-10-22T16:57:40.654Z,2.53
2022-10-22T17:00:29.679Z,2.17
2022-10-22T17:03:18.524Z,2.50
2022-10-22T17:06:07.602Z,2.50
2022-10-22T17:08:56.601Z,4.60
2022-10-22T17:11:47.338Z,3.20
2022-10-22T17:14:36.254Z,4.33
2022-10-22T17:17:25.080Z,4.77
2022-10-22T17:20:13.976Z,4.97
2022-10-22T17:23:02.846Z,5.00
2022-10-22T17:25:52.009Z,4.33
2022-10-22T17:28:42.301Z,5.17
2022-10-22T17:31:32.612Z,5.90
2022-10-22T17:34:21.503Z,4.47
2022-10-22T17:37:10.367Z,6.83
2022-10-22T17:39:59.308Z,5.03
2022-10-22T17:42:49.218Z,11.57
2022-10-22T17:45:39.385Z,9.20
2022-10-22T17:48:28.204Z,7.50
2022-10-22T17:51:18.549Z,7.97
2022-10-22T17:54:09.863Z,6.97
2022-10-22T17:56:59.216Z,7.53
2022-10-22T17:59:48.032Z,8.00
2022-10-22T18:02:38.300Z,9.50
2022-10-22T18:05:27.829Z,11.60
2022-10-22T18:08:16.661Z,12.80
2022-10-22T18:11:07.323Z,11.80
2022-10-22T18:13:57.340Z,11.80
2022-10-22T18:16:46.624Z,10.23
2022-10-22T18:19:36.974Z,10.83
2022-10-22T18:22:25.905Z,11.30
2022-10-22T18:25:14.741Z,11.70
2022-10-22T18:28:03.565Z,12.20
2022-10-22T18:30:52.438Z,12.80
2022-10-22T18:33:41.450Z,13.77
2022-10-22T18:36:31.767Z,13.87
2022-10-22T18:39:20.574Z,14.70
2022-10-22T18:42:09.454Z,14.77
2022-10-22T18:44:58.272Z,14.77
2022-10-22T18:47:47.272Z,16.07
2022-10-22T18:50:36.107Z,13.97
2022-10-22T18:53:26.297Z,13.77
2022-10-22T18:56:15.142Z,13.43
2022-10-22T18:59:04.038Z,13.83
2022-10-22T19:01:53.748Z,13.77
2022-10-22T19:04:42.575Z,14.13
2022-10-22T19:07:31.710Z,12.50
2022-10-22T19:10:21.917Z,13.30
2022-10-22T19:13:10.735Z,12.67
2022-10-22T19:16:03.691Z,13.50
2022-10-22T19:18:53.009Z,12.23
2022-10-22T19:21:41.860Z,12.37
2022-10-22T19:24:30.714Z,11.03
2022-10-22T19:27:21.457Z,11.30
2022-10-22T19:30:10.756Z,11.30
2022-10-22T19:32:59.562Z,12.10
2022-10-22T19:35:48.747Z,12.37
2022-10-22T19:38:39.589Z,11.20
2022-10-22T19:41:29.376Z,9.60
2022-10-22T19:44:19.731Z,9.93
2022-10-22T19:47:09.527Z,11.00
2022-10-22T19:49:58.700Z,11.73
2022-10-22T19:52:47.594Z,11.30
2022-10-22T19:55:36.494Z,10.63
2022-10-22T19:58:25.359Z,11.10
2022-10-22T20:01:16.422Z,10.67
2022-10-22T20:04:05.557Z,10.90
2022-10-22T20:06:54.392Z,10.93
2022-10-22T20:09:43.284Z,11.87
2022-10-22T20:12:32.223Z,11.07
2022-10-22T20:15:21.505Z,10.77
2022-10-22T20:18:11.758Z,10.33
2022-10-22T20:21:01.141Z,10.20
2022-10-22T20:23:54.068Z,8.80
2022-10-22T20:26:42.890Z,9.03
2022-10-22T20:29:31.759Z,9.20
2022-10-22T20:32:21.975Z,9.27
2022-10-22T20:35:12.161Z,11.50
2022-10-22T20:38:00.994Z,10.17
2022-10-22T20:40:49.855Z,9.37
2022-10-22T20:43:38.973Z,15.40
2022-10-22T20:46:29.048Z,15.13
2022-10-22T20:49:19.119Z,11.60
2022-10-22T20:52:09.475Z,10.37
2022-10-22T20:54:58.405Z,10.67
2022-10-22T20:57:47.347Z,8.63
2022-10-22T21:00:39.046Z,9.90
2022-10-22T21:03:28.007Z,12.10
2022-10-22T21:06:16.992Z,10.27
2022-10-22T21:09:08.282Z,11.30
2022-10-22T21:11:58.211Z,10.40
2022-10-22T21:14:48.007Z,10.57
2022-10-22T21:17:36.856Z,11.80
2022-10-22T21:20:25.675Z,11.87
2022-10-22T21:23:14.528Z,14.83
2022-10-22T21:26:04.840Z,15.87
2022-10-22T21:28:53.690Z,15.90
2022-10-22T21:31:43.168Z,16.57
2022-10-22T21:34:36.750Z,14.53
2022-10-22T21:37:29.892Z,13.80
2022-10-22T21:40:18.845Z,12.97
2022-10-22T21:43:09.035Z,11.90
2022-10-22T21:46:07.774Z,11.30
2022-10-22T21:48:58.071Z,11.13
2022-10-22T21:51:47.017Z,13.87
2022-10-22T21:54:37.307Z,14.13
2022-10-22T21:57:26.198Z,14.60
2022-10-22T22:00:17.089Z,15.30
2022-10-22T22:03:08.066Z,13.30
2022-10-22T22:05:59.028Z,13.77
2022-10-22T22:08:48.065Z,13.97
2022-10-22T22:11:36.997Z,13.73
2022-10-22T22:14:25.829Z,12.43
2022-10-22T22:17:16.490Z,11.93
2022-10-22T22:20:05.807Z,12.23
2022-10-22T22:22:54.665Z,12.23
2022-10-22T22:25:43.507Z,12.43
2022-10-22T22:28:32.390Z,12.77
2022-10-22T22:31:24.654Z,12.10
2022-10-22T22:34:15.613Z,11.20
2022-10-22T22:37:04.526Z,11.90
2022-10-22T22:39:53.338Z,10.77
2022-10-22T22:42:43.975Z,9.47
2022-10-22T22:45:32.847Z,9.90
2022-10-22T22:48:21.673Z,10.17
2022-10-22T22:51:11.967Z,10.20
2022-10-22T22:54:01.157Z,10.03
2022-10-22T22:56:51.366Z,10.97
2022-10-22T22:59:40.247Z,9.83
2022-10-22T23:02:29.265Z,9.70
2022-10-22T23:05:18.114Z,9.20
2022-10-22T23:08:08.607Z,9.20
2022-10-22T23:11:02.803Z,9.40
2022-10-22T23:13:53.881Z,9.60
2022-10-22T23:16:45.435Z,9.40
2022-10-22T23:19:34.365Z,9.07
2022-10-22T23:22:23.208Z,9.20
2022-10-22T23:25:13.574Z,9.27
2022-10-22T23:28:02.508Z,9.27
2022-10-22T23:30:51.421Z,9.50
2022-10-22T23:33:40.265Z,8.30
2022-10-22T23:36:29.198Z,8.17
2022-10-22T23:39:19.722Z,9.60
2022-10-22T23:42:09.948Z,8.70
2022-10-22T23:44:58.909Z,7.93
2022-10-22T23:47:47.752Z,10.00
2022-10-22T23:50:38.059Z,8.40
2022-10-22T23:53:26.926Z,7.60
2022-10-22T23:56:16.616Z,8.50
2022-10-22T23:59:06.953Z,8.23
